Time,TemperatureF,DewpointF,PressureIn,WindDirection,WindDirectionDegrees,WindSpeedMPH,WindSpeedGustMPH,Humidity,HourlyPrecipIn,Conditions,Clouds,dailyrainin,SolarRadiationWatts/m^2,SoftwareType,DateUTC
2013-01-20 00:02:00,30.0,13.0,-100.00,South,188,2.0,10.0,48,0.00,,,0.00,0.000000,,2013-01-20 07:02:00,
2013-01-20 00:32:00,30.0,12.0,-100.00,WSW,257,0.0,9.0,47,0.00,,,0.00,0.000000,,2013-01-20 07:32:00,
2013-01-20 00:42:00,30.0,12.0,-100.00,WSW,257,0.0,9.0,47,0.00,,,0.00,0.000000,,2013-01-20 07:42:00,
2013-01-20 00:52:00,30.0,12.0,-100.00,WSW,257,0.0,9.0,47,0.00,,,0.00,0.000000,,2013-01-20 07:52:00,
2013-01-20 01:02:00,30.0,12.0,-100.00,WSW,257,0.0,9.0,47,0.00,,,0.00,0.000000,,2013-01-20 08:02:00,
2013-01-20 01:22:00,30.0,11.0,-100.00,SSW,199,4.0,6.0,45,0.00,,,0.00,0.000000,,2013-01-20 08:22:00,
2013-01-20 01:32:00,30.0,11.0,-100.00,SSW,199,4.0,6.0,45,0.00,,,0.00,0.000000,,2013-01-20 08:32:00,
2013-01-20 01:42:00,30.0,11.0,-100.00,SSW,199,4.0,6.0,45,0.00,,,0.00,0.000000,,2013-01-20 08:42:00,
2013-01-20 01:52:00,30.0,11.0,-100.00,SSW,199,4.0,6.0,45,0.00,,,0.00,0.000000,,2013-01-20 08:52:00,
2013-01-20 02:02:00,30.0,11.0,-100.00,SSW,199,4.0,6.0,45,0.00,,,0.00,0.000000,,2013-01-20 09:02:00,
2013-01-20 02:33:00,31.0,11.0,-100.00,WSW,258,3.0,12.0,43,0.00,,,0.00,0.000000,,2013-01-20 09:33:00,
2013-01-20 02:42:00,31.0,11.0,-100.00,WSW,258,3.0,12.0,43,0.00,,,0.00,0.000000,,2013-01-20 09:42:00,
2013-01-20 02:52:00,31.0,11.0,-100.00,WSW,258,3.0,12.0,43,0.00,,,0.00,0.000000,,2013-01-20 09:52:00,
2013-01-20 03:02:00,31.0,11.0,-100.00,WSW,258,3.0,12.0,43,0.00,,,0.00,0.000000,,2013-01-20 10:02:00,
2013-01-20 03:32:00,33.0,12.0,-100.00,NNW,336,8.0,9.0,41,0.00,,,0.00,0.000000,,2013-01-20 10:32:00,
2013-01-20 03:42:00,33.0,12.0,-100.00,NNW,336,8.0,9.0,41,0.00,,,0.00,0.000000,,2013-01-20 10:42:00,
2013-01-20 03:52:00,33.0,12.0,-100.00,NNW,336,8.0,9.0,41,0.00,,,0.00,0.000000,,2013-01-20 10:52:00,
2013-01-20 04:02:00,33.0,12.0,-100.00,NNW,336,8.0,9.0,41,0.00,,,0.00,0.000000,,2013-01-20 11:02:00,
2013-01-20 04:22:00,31.0,11.0,-100.00,North,0,14.0,32.0,42,0.00,,,0.00,0.000000,,2013-01-20 11:22:00,
2013-01-20 04:33:00,31.0,11.0,-100.00,North,0,14.0,32.0,42,0.00,,,0.00,0.000000,,2013-01-20 11:33:00,
2013-01-20 04:43:00,31.0,11.0,-100.00,North,0,14.0,32.0,42,0.00,,,0.00,0.000000,,2013-01-20 11:43:00,
2013-01-20 04:53:00,31.0,11.0,-100.00,North,0,14.0,32.0,42,0.00,,,0.00,0.000000,,2013-01-20 11:53:00,
2013-01-20 05:02:00,31.0,11.0,-100.00,North,0,14.0,32.0,42,0.00,,,0.00,0.000000,,2013-01-20 12:02:00,
2013-01-20 05:33:00,27.0,11.0,-100.00,NNW,346,14.0,27.0,50,0.00,,,0.00,0.000000,,2013-01-20 12:33:00,
2013-01-20 05:43:00,27.0,11.0,-100.00,NNW,346,14.0,27.0,50,0.00,,,0.00,0.000000,,2013-01-20 12:43:00,
2013-01-20 05:53:00,27.0,11.0,-100.00,NNW,346,14.0,27.0,50,0.00,,,0.00,0.000000,,2013-01-20 12:53:00,
2013-01-20 06:02:00,27.0,11.0,-100.00,NNW,346,14.0,27.0,50,0.00,,,0.00,0.000000,,2013-01-20 13:02:00,
2013-01-20 06:33:00,25.0,10.0,-100.00,North,354,15.0,28.0,52,0.00,,,0.00,0.000000,,2013-01-20 13:33:00,
2013-01-20 06:43:00,25.0,10.0,-100.00,North,354,15.0,28.0,52,0.00,,,0.00,0.000000,,2013-01-20 13:43:00,
2013-01-20 06:52:00,25.0,10.0,-100.00,North,354,15.0,28.0,52,0.00,,,0.00,0.000000,,2013-01-20 13:52:00,
2013-01-20 07:02:00,25.0,10.0,-100.00,North,354,15.0,28.0,52,0.00,,,0.00,0.000000,,2013-01-20 14:02:00,
2013-01-20 07:23:00,22.0,10.0,-100.00,NNE,26,10.0,27.0,58,0.00,,,0.00,0.000000,,2013-01-20 14:23:00,
2013-01-20 07:33:00,22.0,10.0,-100.00,NNE,26,10.0,27.0,58,0.00,,,0.00,0.000000,,2013-01-20 14:33:00,
2013-01-20 07:43:00,22.0,10.0,-100.00,NNE,26,10.0,27.0,58,0.00,,,0.00,0.000000,,2013-01-20 14:43:00,
2013-01-20 07:53:00,22.0,10.0,-100.00,NNE,26,10.0,27.0,58,0.00,,,0.00,0.000000,,2013-01-20 14:53:00,
2013-01-20 08:02:00,22.0,10.0,-100.00,NNE,26,10.0,27.0,58,0.00,,,0.00,0.000000,,2013-01-20 15:02:00,
2013-01-20 08:33:00,20.0,10.0,-100.00,NNE,20,4.0,18.0,64,0.00,,,0.00,0.000000,,2013-01-20 15:33:00,
2013-01-20 08:43:00,20.0,10.0,-100.00,NNE,20,4.0,18.0,64,0.00,,,0.00,0.000000,,2013-01-20 15:43:00,
2013-01-20 08:53:00,20.0,10.0,-100.00,NNE,20,4.0,18.0,64,0.00,,,0.00,0.000000,,2013-01-20 15:53:00,
2013-01-20 09:02:00,20.0,10.0,-100.00,NNE,20,4.0,18.0,64,0.00,,,0.00,0.000000,,2013-01-20 16:02:00,
2013-01-20 09:33:00,23.0,11.0,-100.00,West,265,0.0,12.0,60,0.00,,,0.00,41.000000,,2013-01-20 16:33:00,
2013-01-20 09:43:00,23.0,11.0,-100.00,West,265,0.0,12.0,60,0.00,,,0.00,41.000000,,2013-01-20 16:43:00,
2013-01-20 09:53:00,23.0,11.0,-100.00,West,265,0.0,12.0,60,0.00,,,0.00,41.000000,,2013-01-20 16:53:00,
2013-01-20 10:02:00,23.0,11.0,-100.00,West,265,0.0,12.0,60,0.00,,,0.00,41.000000,,2013-01-20 17:02:00,
2013-01-20 10:33:00,27.0,11.0,-100.00,SE,130,3.0,4.0,51,0.00,,,0.00,218.000000,,2013-01-20 17:33:00,
2013-01-20 10:43:00,27.0,11.0,-100.00,SE,130,3.0,4.0,51,0.00,,,0.00,218.000000,,2013-01-20 17:43:00,
2013-01-20 10:53:00,27.0,11.0,-100.00,SE,130,3.0,4.0,51,0.00,,,0.00,218.000000,,2013-01-20 17:53:00,
2013-01-20 11:02:00,27.0,11.0,-100.00,SE,130,3.0,4.0,51,0.00,,,0.00,218.000000,,2013-01-20 18:02:00,
2013-01-20 11:24:00,29.0,12.0,-100.00,ESE,103,4.0,6.0,48,0.00,,,0.00,348.000000,,2013-01-20 18:24:00,
2013-01-20 11:33:00,29.0,12.0,-100.00,ESE,103,4.0,6.0,48,0.00,,,0.00,348.000000,,2013-01-20 18:33:00,
2013-01-20 11:43:00,29.0,12.0,-100.00,ESE,103,4.0,6.0,48,0.00,,,0.00,348.000000,,2013-01-20 18:43:00,
2013-01-20 11:53:00,29.0,12.0,-100.00,ESE,103,4.0,6.0,48,0.00,,,0.00,348.000000,,2013-01-20 18:53:00,
2013-01-20 12:02:00,29.0,12.0,-100.00,ESE,103,4.0,6.0,48,0.00,,,0.00,348.000000,,2013-01-20 19:02:00,
2013-01-20 12:33:00,30.0,12.0,-100.00,ESE,118,3.0,9.0,47,0.00,,,0.00,452.000000,,2013-01-20 19:33:00,
2013-01-20 12:43:00,30.0,12.0,-100.00,ESE,118,3.0,9.0,47,0.00,,,0.00,452.000000,,2013-01-20 19:43:00,
2013-01-20 12:52:00,30.0,12.0,-100.00,ESE,118,3.0,9.0,47,0.00,,,0.00,452.000000,,2013-01-20 19:52:00,
2013-01-20 13:02:00,30.0,12.0,-100.00,ESE,118,3.0,9.0,47,0.00,,,0.00,452.000000,,2013-01-20 20:02:00,
2013-01-20 13:03:00,30.0,13.0,-100.00,East,94,4.0,8.0,48,0.00,,,0.00,542.000000,,2013-01-20 20:03:00,
2013-01-20 13:33:00,30.0,13.0,-100.00,East,94,4.0,8.0,48,0.00,,,0.00,542.000000,,2013-01-20 20:33:00,
2013-01-20 13:42:00,30.0,13.0,-100.00,East,94,4.0,8.0,48,0.00,,,0.00,542.000000,,2013-01-20 20:42:00,
2013-01-20 13:53:00,30.0,13.0,-100.00,East,94,4.0,8.0,48,0.00,,,0.00,542.000000,,2013-01-20 20:53:00,
2013-01-20 14:33:00,28.0,13.0,-100.00,East,93,5.0,9.0,52,0.00,,,0.00,358.000000,,2013-01-20 21:33:00,
2013-01-20 14:43:00,28.0,13.0,-100.00,East,93,5.0,9.0,52,0.00,,,0.00,358.000000,,2013-01-20 21:43:00,
2013-01-20 14:53:00,28.0,13.0,-100.00,East,93,5.0,9.0,52,0.00,,,0.00,358.000000,,2013-01-20 21:53:00,
2013-01-20 15:02:00,28.0,13.0,-100.00,East,93,5.0,9.0,52,0.00,,,0.00,358.000000,,2013-01-20 22:02:00,
2013-01-20 15:33:00,29.0,13.0,-100.00,ESE,102,4.0,10.0,50,0.00,,,0.00,285.000000,,2013-01-20 22:33:00,
2013-01-20 15:43:00,29.0,13.0,-100.00,ESE,102,4.0,10.0,50,0.00,,,0.00,285.000000,,2013-01-20 22:43:00,
2013-01-20 15:53:00,29.0,13.0,-100.00,ESE,102,4.0,10.0,50,0.00,,,0.00,285.000000,,2013-01-20 22:53:00,
2013-01-20 16:02:00,29.0,13.0,-100.00,ESE,102,4.0,10.0,50,0.00,,,0.00,285.000000,,2013-01-20 23:02:00,
2013-01-20 16:23:00,30.0,13.0,-100.00,NE,42,0.0,7.0,49,0.00,,,0.00,146.000000,,2013-01-20 23:23:00,
2013-01-20 16:33:00,30.0,13.0,-100.00,NE,42,0.0,7.0,49,0.00,,,0.00,146.000000,,2013-01-20 23:33:00,
2013-01-20 16:43:00,30.0,13.0,-100.00,NE,42,0.0,7.0,49,0.00,,,0.00,146.000000,,2013-01-20 23:43:00,
2013-01-20 16:53:00,30.0,13.0,-100.00,NE,42,0.0,7.0,49,0.00,,,0.00,146.000000,,2013-01-20 23:53:00,
2013-01-20 17:02:00,30.0,13.0,-100.00,NE,42,0.0,7.0,49,0.00,,,0.00,146.000000,,2013-01-21 00:02:00,
2013-01-20 17:23:00,23.0,11.0,-100.00,NNE,12,0.0,5.0,59,0.00,,,0.00,50.000000,,2013-01-21 00:23:00,
2013-01-20 17:43:00,23.0,11.0,-100.00,NNE,12,0.0,5.0,59,0.00,,,0.00,50.000000,,2013-01-21 00:43:00,
2013-01-20 17:53:00,23.0,11.0,-100.00,NNE,12,0.0,5.0,59,0.00,,,0.00,50.000000,,2013-01-21 00:53:00,
2013-01-20 18:02:00,23.0,11.0,-100.00,NNE,12,0.0,5.0,59,0.00,,,0.00,50.000000,,2013-01-21 01:02:00,
2013-01-20 18:33:00,20.0,10.0,-100.00,WSW,256,2.0,3.0,65,0.00,,,0.00,2.000000,,2013-01-21 01:33:00,
2013-01-20 18:43:00,20.0,10.0,-100.00,WSW,256,2.0,3.0,65,0.00,,,0.00,2.000000,,2013-01-21 01:43:00,
2013-01-20 18:53:00,20.0,10.0,-100.00,WSW,256,2.0,3.0,65,0.00,,,0.00,2.000000,,2013-01-21 01:53:00,
2013-01-20 19:02:00,20.0,10.0,-100.00,WSW,256,2.0,3.0,65,0.00,,,0.00,2.000000,,2013-01-21 02:02:00,
2013-01-20 19:23:00,19.0,10.0,-100.00,SW,222,1.0,8.0,67,0.00,,,0.00,0.000000,,2013-01-21 02:23:00,
2013-01-20 19:33:00,19.0,10.0,-100.00,SW,222,1.0,8.0,67,0.00,,,0.00,0.000000,,2013-01-21 02:33:00,
2013-01-20 19:43:00,19.0,10.0,-100.00,SW,222,1.0,8.0,67,0.00,,,0.00,0.000000,,2013-01-21 02:43:00,
2013-01-20 19:53:00,19.0,10.0,-100.00,SW,222,1.0,8.0,67,0.00,,,0.00,0.000000,,2013-01-21 02:53:00,
2013-01-20 20:02:00,19.0,10.0,-100.00,SW,222,1.0,8.0,67,0.00,,,0.00,0.000000,,2013-01-21 03:02:00,
2013-01-20 20:33:00,19.0,10.0,-100.00,SW,223,0.0,7.0,66,0.00,,,0.00,0.000000,,2013-01-21 03:33:00,
2013-01-20 20:43:00,19.0,10.0,-100.00,SW,223,0.0,7.0,66,0.00,,,0.00,0.000000,,2013-01-21 03:43:00,
2013-01-20 20:53:00,19.0,10.0,-100.00,SW,223,0.0,7.0,66,0.00,,,0.00,0.000000,,2013-01-21 03:53:00,
2013-01-20 21:02:00,19.0,10.0,-100.00,SW,223,0.0,7.0,66,0.00,,,0.00,0.000000,,2013-01-21 04:02:00,
2013-01-20 21:03:00,21.0,11.0,-100.00,SSW,197,0.0,6.0,66,0.00,,,0.00,0.000000,,2013-01-21 04:03:00,
2013-01-20 21:33:00,21.0,11.0,-100.00,SSW,197,0.0,6.0,66,0.00,,,0.00,0.000000,,2013-01-21 04:33:00,
2013-01-20 21:43:00,21.0,11.0,-100.00,SSW,197,0.0,6.0,66,0.00,,,0.00,0.000000,,2013-01-21 04:43:00,
2013-01-20 21:53:00,21.0,11.0,-100.00,SSW,197,0.0,6.0,66,0.00,,,0.00,0.000000,,2013-01-21 04:53:00,
2013-01-20 22:22:00,20.0,11.0,-100.00,SW,221,1.0,4.0,68,0.00,,,0.00,0.000000,,2013-01-21 05:22:00,
2013-01-20 22:34:00,20.0,11.0,-100.00,SW,221,1.0,4.0,68,0.00,,,0.00,0.000000,,2013-01-21 05:34:00,
2013-01-20 22:42:00,20.0,11.0,-100.00,SW,221,1.0,4.0,68,0.00,,,0.00,0.000000,,2013-01-21 05:42:00,
2013-01-20 22:53:00,20.0,11.0,-100.00,SW,221,1.0,4.0,68,0.00,,,0.00,0.000000,,2013-01-21 05:53:00,
2013-01-20 23:02:00,20.0,11.0,-100.00,SW,221,1.0,4.0,68,0.00,,,0.00,0.000000,,2013-01-21 06:02:00,
2013-01-20 23:33:00,20.0,11.0,-100.00,West,260,1.0,8.0,68,0.00,,,0.00,0.000000,,2013-01-21 06:33:00,
2013-01-20 23:43:00,20.0,11.0,-100.00,West,260,1.0,8.0,68,0.00,,,0.00,0.000000,,2013-01-21 06:43:00,
2013-01-20 23:53:00,20.0,11.0,-100.00,West,260,1.0,8.0,68,0.00,,,0.00,0.000000,,2013-01-21 06:53:00,